sensor_id;sensor_type;location;lat;lon;timestamp;temperature;humidity
4374;DHT22;2201;51.100;6.814;2023-05-31T00:01:59;14.70;98.20
4374;DHT22;2201;51.100;6.814;2023-05-31T00:04:27;14.70;98.20
4374;DHT22;2201;51.100;6.814;2023-05-31T00:06:55;14.70;98.20
4374;DHT22;2201;51.100;6.814;2023-05-31T00:09:21;14.60;98.20
4374;DHT22;2201;51.100;6.814;2023-05-31T00:11:48;14.60;98.20
4374;DHT22;2201;51.100;6.814;2023-05-31T00:14:15;14.60;98.20
4374;DHT22;2201;51.100;6.814;2023-05-31T00:16:41;14.50;98.20
4374;DHT22;2201;51.100;6.814;2023-05-31T00:19:08;14.50;98.20
4374;DHT22;2201;51.100;6.814;2023-05-31T00:21:35;14.50;98.20
4374;DHT22;2201;51.100;6.814;2023-05-31T00:24:03;14.50;98.20
4374;DHT22;2201;51.100;6.814;2023-05-31T00:26:30;14.50;98.20
4374;DHT22;2201;51.100;6.814;2023-05-31T00:28:57;14.40;98.20
4374;DHT22;2201;51.100;6.814;2023-05-31T00:31:23;14.40;98.20
4374;DHT22;2201;51.100;6.814;2023-05-31T00:33:50;14.40;98.20
4374;DHT22;2201;51.100;6.814;2023-05-31T00:36:17;14.30;98.20
4374;DHT22;2201;51.100;6.814;2023-05-31T00:38:44;14.30;98.20
4374;DHT22;2201;51.100;6.814;2023-05-31T00:41:12;14.30;98.20
4374;DHT22;2201;51.100;6.814;2023-05-31T00:43:38;14.20;98.20
4374;DHT22;2201;51.100;6.814;2023-05-31T00:46:06;14.20;98.20
4374;DHT22;2201;51.100;6.814;2023-05-31T00:48:34;14.20;98.20
4374;DHT22;2201;51.100;6.814;2023-05-31T00:51:03;14.10;98.20
4374;DHT22;2201;51.100;6.814;2023-05-31T00:53:30;14.10;98.20
4374;DHT22;2201;51.100;6.814;2023-05-31T00:55:59;14.10;98.20
4374;DHT22;2201;51.100;6.814;2023-05-31T00:58:28;14.00;98.20
4374;DHT22;2201;51.100;6.814;2023-05-31T01:00:55;14.00;98.20
4374;DHT22;2201;51.100;6.814;2023-05-31T01:03:22;14.00;98.20
4374;DHT22;2201;51.100;6.814;2023-05-31T01:05:49;14.00;98.20
4374;DHT22;2201;51.100;6.814;2023-05-31T01:08:16;13.90;98.20
4374;DHT22;2201;51.100;6.814;2023-05-31T01:10:44;13.90;98.20
4374;DHT22;2201;51.100;6.814;2023-05-31T01:13:16;13.90;98.20
4374;DHT22;2201;51.100;6.814;2023-05-31T01:15:55;13.90;98.20
4374;DHT22;2201;51.100;6.814;2023-05-31T01:18:27;13.80;98.20
4374;DHT22;2201;51.100;6.814;2023-05-31T01:20:58;13.80;98.20
4374;DHT22;2201;51.100;6.814;2023-05-31T01:23:35;13.80;98.20
4374;DHT22;2201;51.100;6.814;2023-05-31T01:26:31;13.70;98.20
4374;DHT22;2201;51.100;6.814;2023-05-31T01:29:00;13.70;98.20
4374;DHT22;2201;51.100;6.814;2023-05-31T01:31:32;13.70;98.20
4374;DHT22;2201;51.100;6.814;2023-05-31T01:34:00;13.70;98.20
4374;DHT22;2201;51.100;6.814;2023-05-31T01:36:27;13.60;98.20
4374;DHT22;2201;51.100;6.814;2023-05-31T01:38:54;13.60;98.20
4374;DHT22;2201;51.100;6.814;2023-05-31T01:41:23;13.60;98.20
4374;DHT22;2201;51.100;6.814;2023-05-31T01:43:51;13.60;98.20
4374;DHT22;2201;51.100;6.814;2023-05-31T01:46:20;13.60;98.20
4374;DHT22;2201;51.100;6.814;2023-05-31T01:48:48;13.50;98.20
4374;DHT22;2201;51.100;6.814;2023-05-31T01:51:15;13.50;98.20
4374;DHT22;2201;51.100;6.814;2023-05-31T01:53:42;13.50;98.20
4374;DHT22;2201;51.100;6.814;2023-05-31T01:56:09;13.50;98.20
4374;DHT22;2201;51.100;6.814;2023-05-31T01:58:40;13.50;98.20
4374;DHT22;2201;51.100;6.814;2023-05-31T02:01:10;13.40;98.20
4374;DHT22;2201;51.100;6.814;2023-05-31T02:03:38;13.40;98.20
4374;DHT22;2201;51.100;6.814;2023-05-31T02:06:06;13.40;98.20
4374;DHT22;2201;51.100;6.814;2023-05-31T02:08:33;13.40;98.20
4374;DHT22;2201;51.100;6.814;2023-05-31T02:10:59;13.40;98.20
4374;DHT22;2201;51.100;6.814;2023-05-31T02:13:27;13.30;98.20
4374;DHT22;2201;51.100;6.814;2023-05-31T02:15:55;13.30;98.20
4374;DHT22;2201;51.100;6.814;2023-05-31T02:18:23;13.30;98.20
4374;DHT22;2201;51.100;6.814;2023-05-31T02:20:52;13.30;98.20
4374;DHT22;2201;51.100;6.814;2023-05-31T02:23:19;13.30;98.20
4374;DHT22;2201;51.100;6.814;2023-05-31T02:25:46;13.30;98.20
4374;DHT22;2201;51.100;6.814;2023-05-31T02:28:14;13.30;98.20
4374;DHT22;2201;51.100;6.814;2023-05-31T02:30:41;13.30;98.20
4374;DHT22;2201;51.100;6.814;2023-05-31T02:33:09;13.20;98.20
4374;DHT22;2201;51.100;6.814;2023-05-31T02:35:36;13.20;98.20
4374;DHT22;2201;51.100;6.814;2023-05-31T02:38:03;13.10;98.20
4374;DHT22;2201;51.100;6.814;2023-05-31T02:40:30;13.10;98.20
4374;DHT22;2201;51.100;6.814;2023-05-31T02:42:56;13.10;98.20
4374;DHT22;2201;51.100;6.814;2023-05-31T02:45:23;13.10;98.20
4374;DHT22;2201;51.100;6.814;2023-05-31T02:47:50;13.10;98.20
4374;DHT22;2201;51.100;6.814;2023-05-31T02:50:18;13.10;98.20
4374;DHT22;2201;51.100;6.814;2023-05-31T02:52:45;13.00;98.20
4374;DHT22;2201;51.100;6.814;2023-05-31T02:55:12;13.00;98.20
4374;DHT22;2201;51.100;6.814;2023-05-31T02:57:38;13.00;98.20
4374;DHT22;2201;51.100;6.814;2023-05-31T03:00:06;13.00;98.20
4374;DHT22;2201;51.100;6.814;2023-05-31T03:02:39;13.00;98.20
4374;DHT22;2201;51.100;6.814;2023-05-31T03:05:06;12.90;98.20
4374;DHT22;2201;51.100;6.814;2023-05-31T03:07:35;12.90;98.20
4374;DHT22;2201;51.100;6.814;2023-05-31T03:10:03;12.90;98.20
4374;DHT22;2201;51.100;6.814;2023-05-31T03:12:30;12.90;98.20
4374;DHT22;2201;51.100;6.814;2023-05-31T03:14:57;12.90;98.20
4374;DHT22;2201;51.100;6.814;2023-05-31T03:17:23;12.90;98.20
4374;DHT22;2201;51.100;6.814;2023-05-31T03:19:50;12.90;98.20
4374;DHT22;2201;51.100;6.814;2023-05-31T03:22:17;12.80;98.20
4374;DHT22;2201;51.100;6.814;2023-05-31T03:24:45;12.80;98.20
4374;DHT22;2201;51.100;6.814;2023-05-31T03:27:12;12.80;98.20
4374;DHT22;2201;51.100;6.814;2023-05-31T03:29:41;12.80;98.20
4374;DHT22;2201;51.100;6.814;2023-05-31T03:32:08;12.80;98.20
4374;DHT22;2201;51.100;6.814;2023-05-31T03:34:35;12.80;98.20
4374;DHT22;2201;51.100;6.814;2023-05-31T03:37:03;12.80;98.20
4374;DHT22;2201;51.100;6.814;2023-05-31T03:39:29;12.80;98.20
4374;DHT22;2201;51.100;6.814;2023-05-31T03:41:59;12.80;98.20
4374;DHT22;2201;51.100;6.814;2023-05-31T03:44:26;12.80;98.20
4374;DHT22;2201;51.100;6.814;2023-05-31T03:46:53;12.80;98.20
4374;DHT22;2201;51.100;6.814;2023-05-31T03:49:20;12.80;98.20
4374;DHT22;2201;51.100;6.814;2023-05-31T03:51:46;12.80;98.20
4374;DHT22;2201;51.100;6.814;2023-05-31T03:54:13;12.80;98.20
4374;DHT22;2201;51.100;6.814;2023-05-31T03:56:40;12.80;98.20
4374;DHT22;2201;51.100;6.814;2023-05-31T03:59:08;12.80;98.20
4374;DHT22;2201;51.100;6.814;2023-05-31T04:01:35;12.80;98.20
4374;DHT22;2201;51.100;6.814;2023-05-31T04:04:01;12.80;98.20
4374;DHT22;2201;51.100;6.814;2023-05-31T04:06:28;12.90;98.20
4374;DHT22;2201;51.100;6.814;2023-05-31T04:08:55;12.90;98.20
4374;DHT22;2201;51.100;6.814;2023-05-31T04:11:22;12.90;98.20
4374;DHT22;2201;51.100;6.814;2023-05-31T04:13:49;12.90;98.20
4374;DHT22;2201;51.100;6.814;2023-05-31T04:16:17;12.90;98.20
4374;DHT22;2201;51.100;6.814;2023-05-31T04:18:43;12.90;98.20
4374;DHT22;2201;51.100;6.814;2023-05-31T04:21:10;12.90;98.20
4374;DHT22;2201;51.100;6.814;2023-05-31T04:23:37;12.90;98.20
4374;DHT22;2201;51.100;6.814;2023-05-31T04:26:10;13.00;98.20
4374;DHT22;2201;51.100;6.814;2023-05-31T04:28:43;13.00;98.20
4374;DHT22;2201;51.100;6.814;2023-05-31T04:31:10;13.00;98.20
4374;DHT22;2201;51.100;6.814;2023-05-31T04:33:38;13.00;98.20
4374;DHT22;2201;51.100;6.814;2023-05-31T04:36:07;13.10;98.20
4374;DHT22;2201;51.100;6.814;2023-05-31T04:38:35;13.10;98.20
4374;DHT22;2201;51.100;6.814;2023-05-31T04:41:02;13.20;98.20
4374;DHT22;2201;51.100;6.814;2023-05-31T04:43:29;13.30;98.20
4374;DHT22;2201;51.100;6.814;2023-05-31T04:45:56;13.30;98.20
4374;DHT22;2201;51.100;6.814;2023-05-31T04:48:26;13.40;98.20
4374;DHT22;2201;51.100;6.814;2023-05-31T04:50:54;13.60;98.20
4374;DHT22;2201;51.100;6.814;2023-05-31T04:53:22;13.80;98.20
4374;DHT22;2201;51.100;6.814;2023-05-31T04:55:48;14.00;98.20
4374;DHT22;2201;51.100;6.814;2023-05-31T04:58:17;14.20;98.20
4374;DHT22;2201;51.100;6.814;2023-05-31T05:00:45;14.40;98.20
4374;DHT22;2201;51.100;6.814;2023-05-31T05:03:12;14.60;98.20
4374;DHT22;2201;51.100;6.814;2023-05-31T05:05:39;14.80;98.20
4374;DHT22;2201;51.100;6.814;2023-05-31T05:08:07;15.00;98.20
4374;DHT22;2201;51.100;6.814;2023-05-31T05:10:34;15.20;98.20
4374;DHT22;2201;51.100;6.814;2023-05-31T05:13:01;15.40;98.20
4374;DHT22;2201;51.100;6.814;2023-05-31T05:15:28;15.60;98.20
4374;DHT22;2201;51.100;6.814;2023-05-31T05:17:54;15.70;98.20
4374;DHT22;2201;51.100;6.814;2023-05-31T05:20:21;16.00;98.20
4374;DHT22;2201;51.100;6.814;2023-05-31T05:22:51;16.20;98.20
4374;DHT22;2201;51.100;6.814;2023-05-31T05:25:20;16.40;98.20
4374;DHT22;2201;51.100;6.814;2023-05-31T05:27:48;16.60;98.20
4374;DHT22;2201;51.100;6.814;2023-05-31T05:30:15;16.70;98.20
4374;DHT22;2201;51.100;6.814;2023-05-31T05:32:42;16.80;98.20
4374;DHT22;2201;51.100;6.814;2023-05-31T05:35:09;17.00;98.20
4374;DHT22;2201;51.100;6.814;2023-05-31T05:37:36;17.00;98.20
4374;DHT22;2201;51.100;6.814;2023-05-31T05:40:03;17.10;98.20
4374;DHT22;2201;51.100;6.814;2023-05-31T05:42:33;17.20;98.20
4374;DHT22;2201;51.100;6.814;2023-05-31T05:45:03;17.30;98.20
4374;DHT22;2201;51.100;6.814;2023-05-31T05:47:30;17.40;98.20
4374;DHT22;2201;51.100;6.814;2023-05-31T05:49:57;17.50;98.20
4374;DHT22;2201;51.100;6.814;2023-05-31T05:52:24;17.60;98.20
4374;DHT22;2201;51.100;6.814;2023-05-31T05:54:50;17.60;98.20
4374;DHT22;2201;51.100;6.814;2023-05-31T05:57:17;17.70;98.20
4374;DHT22;2201;51.100;6.814;2023-05-31T05:59:46;17.90;98.20
4374;DHT22;2201;51.100;6.814;2023-05-31T06:02:13;18.00;98.20
4374;DHT22;2201;51.100;6.814;2023-05-31T06:04:40;18.20;98.20
4374;DHT22;2201;51.100;6.814;2023-05-31T06:07:07;18.40;98.20
4374;DHT22;2201;51.100;6.814;2023-05-31T06:09:34;18.60;98.20
4374;DHT22;2201;51.100;6.814;2023-05-31T06:12:00;18.70;97.80
4374;DHT22;2201;51.100;6.814;2023-05-31T06:14:28;18.90;97.40
4374;DHT22;2201;51.100;6.814;2023-05-31T06:16:56;19.10;96.80
4374;DHT22;2201;51.100;6.814;2023-05-31T06:19:22;19.20;96.00
4374;DHT22;2201;51.100;6.814;2023-05-31T06:21:49;19.40;95.00
4374;DHT22;2201;51.100;6.814;2023-05-31T06:24:17;19.50;94.90
4374;DHT22;2201;51.100;6.814;2023-05-31T06:26:44;19.60;95.40
4374;DHT22;2201;51.100;6.814;2023-05-31T06:29:10;19.80;94.10
4374;DHT22;2201;51.100;6.814;2023-05-31T06:31:37;20.00;93.90
4374;DHT22;2201;51.100;6.814;2023-05-31T06:34:05;20.20;92.90
4374;DHT22;2201;51.100;6.814;2023-05-31T06:36:32;20.40;92.60
4374;DHT22;2201;51.100;6.814;2023-05-31T06:38:59;20.60;91.70
4374;DHT22;2201;51.100;6.814;2023-05-31T06:41:25;20.70;91.90
4374;DHT22;2201;51.100;6.814;2023-05-31T06:43:54;20.80;91.30
4374;DHT22;2201;51.100;6.814;2023-05-31T06:46:21;21.00;91.10
4374;DHT22;2201;51.100;6.814;2023-05-31T06:48:48;21.10;90.10
4374;DHT22;2201;51.100;6.814;2023-05-31T06:51:17;21.20;88.70
4374;DHT22;2201;51.100;6.814;2023-05-31T06:53:46;21.30;88.20
4374;DHT22;2201;51.100;6.814;2023-05-31T06:56:13;21.40;88.40
4374;DHT22;2201;51.100;6.814;2023-05-31T06:58:39;21.70;87.60
4374;DHT22;2201;51.100;6.814;2023-05-31T07:01:06;21.80;87.70
4374;DHT22;2201;51.100;6.814;2023-05-31T07:03:33;21.90;86.10
4374;DHT22;2201;51.100;6.814;2023-05-31T07:06:00;22.10;85.80
4374;DHT22;2201;51.100;6.814;2023-05-31T07:08:28;22.30;86.00
4374;DHT22;2201;51.100;6.814;2023-05-31T07:10:55;22.40;84.90
4374;DHT22;2201;51.100;6.814;2023-05-31T07:13:22;22.60;85.80
4374;DHT22;2201;51.100;6.814;2023-05-31T07:15:48;22.80;85.20
4374;DHT22;2201;51.100;6.814;2023-05-31T07:18:15;22.80;85.10
4374;DHT22;2201;51.100;6.814;2023-05-31T07:20:42;23.00;84.70
4374;DHT22;2201;51.100;6.814;2023-05-31T07:23:09;23.20;83.80
4374;DHT22;2201;51.100;6.814;2023-05-31T07:25:37;23.40;83.20
4374;DHT22;2201;51.100;6.814;2023-05-31T07:28:04;23.60;82.70
4374;DHT22;2201;51.100;6.814;2023-05-31T07:30:31;23.70;81.80
4374;DHT22;2201;51.100;6.814;2023-05-31T07:32:57;23.80;81.60
4374;DHT22;2201;51.100;6.814;2023-05-31T07:35:24;23.90;82.70
4374;DHT22;2201;51.100;6.814;2023-05-31T07:37:51;24.10;81.30
4374;DHT22;2201;51.100;6.814;2023-05-31T07:40:18;24.10;81.20
4374;DHT22;2201;51.100;6.814;2023-05-31T07:42:46;24.10;80.60
4374;DHT22;2201;51.100;6.814;2023-05-31T07:45:13;24.20;80.60
4374;DHT22;2201;51.100;6.814;2023-05-31T07:47:40;24.40;80.10
4374;DHT22;2201;51.100;6.814;2023-05-31T07:50:07;24.60;78.60
4374;DHT22;2201;51.100;6.814;2023-05-31T07:52:34;24.80;78.00
4374;DHT22;2201;51.100;6.814;2023-05-31T07:55:01;25.00;77.20
4374;DHT22;2201;51.100;6.814;2023-05-31T07:57:28;25.10;77.70
4374;DHT22;2201;51.100;6.814;2023-05-31T07:59:57;25.20;78.60
4374;DHT22;2201;51.100;6.814;2023-05-31T08:02:24;25.40;77.80
4374;DHT22;2201;51.100;6.814;2023-05-31T08:04:51;25.40;77.50
4374;DHT22;2201;51.100;6.814;2023-05-31T08:07:17;25.60;77.50
4374;DHT22;2201;51.100;6.814;2023-05-31T08:09:44;25.70;75.30
4374;DHT22;2201;51.100;6.814;2023-05-31T08:12:13;25.90;75.30
4374;DHT22;2201;51.100;6.814;2023-05-31T08:14:39;26.00;74.00
4374;DHT22;2201;51.100;6.814;2023-05-31T08:17:07;26.10;72.30
4374;DHT22;2201;51.100;6.814;2023-05-31T08:19:34;26.10;71.00
4374;DHT22;2201;51.100;6.814;2023-05-31T08:22:01;26.30;70.80
4374;DHT22;2201;51.100;6.814;2023-05-31T08:24:29;26.50;70.30
4374;DHT22;2201;51.100;6.814;2023-05-31T08:26:56;26.60;69.20
4374;DHT22;2201;51.100;6.814;2023-05-31T08:29:23;26.70;69.00
4374;DHT22;2201;51.100;6.814;2023-05-31T08:31:50;26.60;69.80
4374;DHT22;2201;51.100;6.814;2023-05-31T08:34:18;26.70;67.80
4374;DHT22;2201;51.100;6.814;2023-05-31T08:36:45;26.70;68.30
4374;DHT22;2201;51.100;6.814;2023-05-31T08:39:12;26.70;65.70
4374;DHT22;2201;51.100;6.814;2023-05-31T08:41:47;26.60;67.30
4374;DHT22;2201;51.100;6.814;2023-05-31T08:44:19;26.60;67.80
4374;DHT22;2201;51.100;6.814;2023-05-31T08:46:47;26.80;68.20
4374;DHT22;2201;51.100;6.814;2023-05-31T08:49:14;27.00;67.80
4374;DHT22;2201;51.100;6.814;2023-05-31T08:51:44;27.10;68.10
4374;DHT22;2201;51.100;6.814;2023-05-31T08:54:12;27.30;67.30
4374;DHT22;2201;51.100;6.814;2023-05-31T08:56:39;27.50;67.60
4374;DHT22;2201;51.100;6.814;2023-05-31T08:59:09;27.70;68.30
4374;DHT22;2201;51.100;6.814;2023-05-31T09:01:37;27.80;67.10
4374;DHT22;2201;51.100;6.814;2023-05-31T09:04:05;27.80;66.00
4374;DHT22;2201;51.100;6.814;2023-05-31T09:06:32;28.00;67.40
4374;DHT22;2201;51.100;6.814;2023-05-31T09:09:00;28.20;68.50
4374;DHT22;2201;51.100;6.814;2023-05-31T09:11:27;28.30;65.70
4374;DHT22;2201;51.100;6.814;2023-05-31T09:13:55;28.40;65.90
4374;DHT22;2201;51.100;6.814;2023-05-31T09:16:23;28.50;64.90
4374;DHT22;2201;51.100;6.814;2023-05-31T09:18:59;28.70;65.80
4374;DHT22;2201;51.100;6.814;2023-05-31T09:21:28;28.80;62.30
4374;DHT22;2201;51.100;6.814;2023-05-31T09:23:57;28.80;62.10
4374;DHT22;2201;51.100;6.814;2023-05-31T09:26:26;28.70;62.60
4374;DHT22;2201;51.100;6.814;2023-05-31T09:28:55;28.40;59.70
4374;DHT22;2201;51.100;6.814;2023-05-31T09:31:22;28.20;60.50
4374;DHT22;2201;51.100;6.814;2023-05-31T09:33:50;28.30;60.30
4374;DHT22;2201;51.100;6.814;2023-05-31T09:36:23;28.30;60.30
4374;DHT22;2201;51.100;6.814;2023-05-31T09:38:58;28.40;58.70
4374;DHT22;2201;51.100;6.814;2023-05-31T09:41:27;28.40;60.80
4374;DHT22;2201;51.100;6.814;2023-05-31T09:43:54;28.70;62.10
4374;DHT22;2201;51.100;6.814;2023-05-31T09:46:23;28.80;60.40
4374;DHT22;2201;51.100;6.814;2023-05-31T09:48:58;28.70;58.40
4374;DHT22;2201;51.100;6.814;2023-05-31T09:51:27;28.80;59.10
4374;DHT22;2201;51.100;6.814;2023-05-31T09:53:54;28.80;58.20
4374;DHT22;2201;51.100;6.814;2023-05-31T09:56:23;28.90;58.40
4374;DHT22;2201;51.100;6.814;2023-05-31T09:58:54;29.20;61.10
4374;DHT22;2201;51.100;6.814;2023-05-31T10:01:22;29.10;59.00
4374;DHT22;2201;51.100;6.814;2023-05-31T10:03:49;28.90;58.30
4374;DHT22;2201;51.100;6.814;2023-05-31T10:06:17;28.90;59.70
4374;DHT22;2201;51.100;6.814;2023-05-31T10:08:45;29.00;59.80
4374;DHT22;2201;51.100;6.814;2023-05-31T10:11:14;29.20;61.20
4374;DHT22;2201;51.100;6.814;2023-05-31T10:13:44;29.40;59.10
4374;DHT22;2201;51.100;6.814;2023-05-31T10:16:15;29.60;57.50
4374;DHT22;2201;51.100;6.814;2023-05-31T10:18:44;29.60;57.40
4374;DHT22;2201;51.100;6.814;2023-05-31T10:21:15;29.70;58.00
4374;DHT22;2201;51.100;6.814;2023-05-31T10:23:53;29.70;57.30
4374;DHT22;2201;51.100;6.814;2023-05-31T10:26:22;29.80;57.70
4374;DHT22;2201;51.100;6.814;2023-05-31T10:28:54;30.00;58.20
4374;DHT22;2201;51.100;6.814;2023-05-31T10:31:30;30.20;58.60
4374;DHT22;2201;51.100;6.814;2023-05-31T10:34:05;30.10;56.80
4374;DHT22;2201;51.100;6.814;2023-05-31T10:36:37;30.10;56.00
4374;DHT22;2201;51.100;6.814;2023-05-31T10:39:08;30.10;57.40
4374;DHT22;2201;51.100;6.814;2023-05-31T10:41:42;30.30;56.50
4374;DHT22;2201;51.100;6.814;2023-05-31T10:44:17;30.50;56.70
4374;DHT22;2201;51.100;6.814;2023-05-31T10:46:49;30.50;57.50
4374;DHT22;2201;51.100;6.814;2023-05-31T10:49:18;30.50;57.50
4374;DHT22;2201;51.100;6.814;2023-05-31T10:51:46;30.60;55.80
4374;DHT22;2201;51.100;6.814;2023-05-31T10:54:18;30.50;58.10
4374;DHT22;2201;51.100;6.814;2023-05-31T10:56:52;30.60;58.30
4374;DHT22;2201;51.100;6.814;2023-05-31T10:59:19;30.80;58.50
4374;DHT22;2201;51.100;6.814;2023-05-31T11:01:47;30.70;58.30
4374;DHT22;2201;51.100;6.814;2023-05-31T11:04:22;30.90;60.10
4374;DHT22;2201;51.100;6.814;2023-05-31T11:06:53;31.10;57.20
4374;DHT22;2201;51.100;6.814;2023-05-31T11:09:21;31.10;55.20
4374;DHT22;2201;51.100;6.814;2023-05-31T11:11:49;31.10;56.10
4374;DHT22;2201;51.100;6.814;2023-05-31T11:14:25;31.00;56.70
4374;DHT22;2201;51.100;6.814;2023-05-31T11:17:15;31.10;57.30
4374;DHT22;2201;51.100;6.814;2023-05-31T11:19:43;31.00;57.10
4374;DHT22;2201;51.100;6.814;2023-05-31T11:22:14;30.90;58.30
4374;DHT22;2201;51.100;6.814;2023-05-31T11:24:49;30.70;56.70
4374;DHT22;2201;51.100;6.814;2023-05-31T11:27:17;30.50;58.20
4374;DHT22;2201;51.100;6.814;2023-05-31T11:29:58;30.20;59.00
4374;DHT22;2201;51.100;6.814;2023-05-31T11:32:57;30.40;58.30
4374;DHT22;2201;51.100;6.814;2023-05-31T11:35:25;30.40;58.60
4374;DHT22;2201;51.100;6.814;2023-05-31T11:38:00;30.60;59.10
4374;DHT22;2201;51.100;6.814;2023-05-31T11:40:28;30.60;60.00
4374;DHT22;2201;51.100;6.814;2023-05-31T11:43:03;30.60;58.70
4374;DHT22;2201;51.100;6.814;2023-05-31T11:45:33;30.60;58.70
4374;DHT22;2201;51.100;6.814;2023-05-31T11:50:50;30.50;57.70
4374;DHT22;2201;51.100;6.814;2023-05-31T11:53:17;30.50;58.50
4374;DHT22;2201;51.100;6.814;2023-05-31T11:55:45;30.50;58.60
4374;DHT22;2201;51.100;6.814;2023-05-31T11:58:14;30.60;58.40
4374;DHT22;2201;51.100;6.814;2023-05-31T12:00:44;30.60;57.20
4374;DHT22;2201;51.100;6.814;2023-05-31T12:03:15;30.80;57.40
4374;DHT22;2201;51.100;6.814;2023-05-31T12:05:49;30.80;57.40
4374;DHT22;2201;51.100;6.814;2023-05-31T12:08:17;30.50;57.10
4374;DHT22;2201;51.100;6.814;2023-05-31T12:10:44;30.20;57.60
4374;DHT22;2201;51.100;6.814;2023-05-31T12:13:15;30.00;57.20
4374;DHT22;2201;51.100;6.814;2023-05-31T12:15:42;29.90;59.20
4374;DHT22;2201;51.100;6.814;2023-05-31T12:18:11;29.90;58.80
4374;DHT22;2201;51.100;6.814;2023-05-31T12:20:42;30.00;58.10
4374;DHT22;2201;51.100;6.814;2023-05-31T12:23:10;30.10;58.60
4374;DHT22;2201;51.100;6.814;2023-05-31T12:25:43;30.30;58.40
4374;DHT22;2201;51.100;6.814;2023-05-31T12:28:10;30.60;59.70
4374;DHT22;2201;51.100;6.814;2023-05-31T12:30:42;30.80;58.40
4374;DHT22;2201;51.100;6.814;2023-05-31T12:33:09;30.70;58.10
4374;DHT22;2201;51.100;6.814;2023-05-31T12:35:41;30.90;58.60
4374;DHT22;2201;51.100;6.814;2023-05-31T12:38:08;30.70;57.60
4374;DHT22;2201;51.100;6.814;2023-05-31T12:40:40;30.50;58.50
4374;DHT22;2201;51.100;6.814;2023-05-31T12:43:07;30.40;58.40
4374;DHT22;2201;51.100;6.814;2023-05-31T12:45:39;30.50;58.00
4374;DHT22;2201;51.100;6.814;2023-05-31T12:48:08;30.50;59.10
4374;DHT22;2201;51.100;6.814;2023-05-31T12:50:36;30.60;59.30
4374;DHT22;2201;51.100;6.814;2023-05-31T12:53:07;30.70;59.20
4374;DHT22;2201;51.100;6.814;2023-05-31T12:55:34;30.80;58.80
4374;DHT22;2201;51.100;6.814;2023-05-31T12:58:01;30.80;56.80
4374;DHT22;2201;51.100;6.814;2023-05-31T13:00:29;30.80;57.20
4374;DHT22;2201;51.100;6.814;2023-05-31T13:02:57;30.90;58.20
4374;DHT22;2201;51.100;6.814;2023-05-31T13:05:23;30.80;57.50
4374;DHT22;2201;51.100;6.814;2023-05-31T13:07:51;30.80;58.90
4374;DHT22;2201;51.100;6.814;2023-05-31T13:10:20;30.90;58.90
4374;DHT22;2201;51.100;6.814;2023-05-31T13:12:47;30.90;57.10
4374;DHT22;2201;51.100;6.814;2023-05-31T13:15:13;30.80;57.40
4374;DHT22;2201;51.100;6.814;2023-05-31T13:17:40;30.70;58.30
4374;DHT22;2201;51.100;6.814;2023-05-31T13:20:08;30.60;58.60
4374;DHT22;2201;51.100;6.814;2023-05-31T13:22:41;30.50;57.40
4374;DHT22;2201;51.100;6.814;2023-05-31T13:25:09;30.50;58.90
4374;DHT22;2201;51.100;6.814;2023-05-31T13:27:37;30.50;58.20
4374;DHT22;2201;51.100;6.814;2023-05-31T13:30:06;30.50;57.60
4374;DHT22;2201;51.100;6.814;2023-05-31T13:32:33;30.60;59.30
4374;DHT22;2201;51.100;6.814;2023-05-31T13:35:00;30.80;58.40
4374;DHT22;2201;51.100;6.814;2023-05-31T13:37:27;30.80;57.90
4374;DHT22;2201;51.100;6.814;2023-05-31T13:39:54;30.80;57.10
4374;DHT22;2201;51.100;6.814;2023-05-31T13:42:21;30.80;57.60
4374;DHT22;2201;51.100;6.814;2023-05-31T13:44:49;30.60;58.00
4374;DHT22;2201;51.100;6.814;2023-05-31T13:47:16;30.50;56.80
4374;DHT22;2201;51.100;6.814;2023-05-31T13:49:43;30.40;57.70
4374;DHT22;2201;51.100;6.814;2023-05-31T13:52:10;30.50;58.70
4374;DHT22;2201;51.100;6.814;2023-05-31T13:54:39;30.50;58.30
4374;DHT22;2201;51.100;6.814;2023-05-31T13:57:06;30.60;58.90
4374;DHT22;2201;51.100;6.814;2023-05-31T13:59:33;30.70;57.80
4374;DHT22;2201;51.100;6.814;2023-05-31T14:02:01;30.60;58.10
4374;DHT22;2201;51.100;6.814;2023-05-31T14:04:28;30.50;58.40
4374;DHT22;2201;51.100;6.814;2023-05-31T14:06:54;30.60;56.50
4374;DHT22;2201;51.100;6.814;2023-05-31T14:09:21;30.30;57.20
4374;DHT22;2201;51.100;6.814;2023-05-31T14:11:48;30.30;58.20
4374;DHT22;2201;51.100;6.814;2023-05-31T14:14:15;30.20;57.70
4374;DHT22;2201;51.100;6.814;2023-05-31T14:16:42;30.20;57.40
4374;DHT22;2201;51.100;6.814;2023-05-31T14:19:10;30.10;57.50
4374;DHT22;2201;51.100;6.814;2023-05-31T14:21:37;29.80;57.80
4374;DHT22;2201;51.100;6.814;2023-05-31T14:24:04;29.70;59.30
4374;DHT22;2201;51.100;6.814;2023-05-31T14:26:31;29.80;57.80
4374;DHT22;2201;51.100;6.814;2023-05-31T14:28:57;29.90;58.50
4374;DHT22;2201;51.100;6.814;2023-05-31T14:31:25;29.80;58.10
4374;DHT22;2201;51.100;6.814;2023-05-31T14:33:51;29.90;59.30
4374;DHT22;2201;51.100;6.814;2023-05-31T14:36:20;30.00;57.80
4374;DHT22;2201;51.100;6.814;2023-05-31T14:38:47;30.10;57.00
4374;DHT22;2201;51.100;6.814;2023-05-31T14:41:14;30.10;57.00
4374;DHT22;2201;51.100;6.814;2023-05-31T14:43:41;29.90;57.60
4374;DHT22;2201;51.100;6.814;2023-05-31T14:49:30;29.80;56.80
4374;DHT22;2201;51.100;6.814;2023-05-31T14:51:58;29.80;58.10
4374;DHT22;2201;51.100;6.814;2023-05-31T14:54:25;29.70;58.20
4374;DHT22;2201;51.100;6.814;2023-05-31T14:56:53;29.70;59.30
4374;DHT22;2201;51.100;6.814;2023-05-31T14:59:19;29.70;58.30
4374;DHT22;2201;51.100;6.814;2023-05-31T15:01:48;29.70;58.40
4374;DHT22;2201;51.100;6.814;2023-05-31T15:04:17;29.90;58.10
4374;DHT22;2201;51.100;6.814;2023-05-31T15:06:44;29.70;58.60
4374;DHT22;2201;51.100;6.814;2023-05-31T15:09:12;29.70;57.80
4374;DHT22;2201;51.100;6.814;2023-05-31T15:11:39;29.50;58.50
4374;DHT22;2201;51.100;6.814;2023-05-31T15:14:06;29.40;58.00
4374;DHT22;2201;51.100;6.814;2023-05-31T15:16:34;29.50;59.40
4374;DHT22;2201;51.100;6.814;2023-05-31T15:19:00;29.60;58.00
4374;DHT22;2201;51.100;6.814;2023-05-31T15:21:27;29.60;59.30
4374;DHT22;2201;51.100;6.814;2023-05-31T15:23:54;29.60;57.90
4374;DHT22;2201;51.100;6.814;2023-05-31T15:26:22;29.60;58.50
4374;DHT22;2201;51.100;6.814;2023-05-31T15:28:49;29.60;57.90
4374;DHT22;2201;51.100;6.814;2023-05-31T15:31:16;29.40;58.70
4374;DHT22;2201;51.100;6.814;2023-05-31T15:33:43;29.40;57.70
4374;DHT22;2201;51.100;6.814;2023-05-31T15:36:10;29.40;58.40
4374;DHT22;2201;51.100;6.814;2023-05-31T15:38:37;29.20;57.80
4374;DHT22;2201;51.100;6.814;2023-05-31T15:41:04;28.90;58.80
4374;DHT22;2201;51.100;6.814;2023-05-31T15:43:32;28.80;58.30
4374;DHT22;2201;51.100;6.814;2023-05-31T15:46:00;28.70;58.10
4374;DHT22;2201;51.100;6.814;2023-05-31T15:48:27;28.70;59.00
4374;DHT22;2201;51.100;6.814;2023-05-31T15:50:54;28.70;58.60
4374;DHT22;2201;51.100;6.814;2023-05-31T15:53:21;28.80;59.70
4374;DHT22;2201;51.100;6.814;2023-05-31T15:55:48;28.80;59.10
4374;DHT22;2201;51.100;6.814;2023-05-31T15:58:15;28.80;58.70
4374;DHT22;2201;51.100;6.814;2023-05-31T16:00:43;28.50;59.40
4374;DHT22;2201;51.100;6.814;2023-05-31T16:03:10;28.40;59.10
4374;DHT22;2201;51.100;6.814;2023-05-31T16:05:36;28.40;59.90
4374;DHT22;2201;51.100;6.814;2023-05-31T16:08:04;28.30;60.40
4374;DHT22;2201;51.100;6.814;2023-05-31T16:10:31;28.30;61.00
4374;DHT22;2201;51.100;6.814;2023-05-31T16:12:57;28.20;59.70
4374;DHT22;2201;51.100;6.814;2023-05-31T16:15:25;27.90;60.30